Time;durP1;ratioP1;P1;durP2;ratioP2;P2;SDS_P1;SDS_P2;PMS_P1;PMS_P2;Temp;Humidity;BMP_temperature;BMP_pressure;BME280_temperature;BME280_humidity;BME280_pressure;Samples;Min_cycle;Max_cycle;Signal;HPM_P1;HPM_P2
2021/09/17 00:00:09;;;;;;;25.02;13.80;;;;;;;;;;5009560;28;20030;-63
2021/09/17 00:02:35;;;;;;;23.33;14.20;;;;;;;;;;5010872;28;20056;-64
2021/09/17 00:05:01;;;;;;;24.15;13.77;;;;;;;;;;5009532;28;20022;-65
2021/09/17 00:07:27;;;;;;;23.50;13.93;;;;;;;;;;5010739;28;20037;-64
2021/09/17 00:09:53;;;;;;;25.13;13.85;;;;;;;;;;5009539;28;20041;-64
2021/09/17 00:12:19;;;;;;;22.92;13.85;;;;;;;;;;5009622;28;20060;-64
2021/09/17 00:14:45;;;;;;;23.77;13.23;;;;;;;;;;5009748;28;20053;-64
2021/09/17 00:17:12;;;;;;;22.30;13.32;;;;;;;;;;5010749;28;20026;-64
2021/09/17 00:19:38;;;;;;;23.20;13.48;;;;;;;;;;5010326;28;20033;-64
2021/09/17 00:22:04;;;;;;;22.77;14.18;;;;;;;;;;5010851;28;20129;-64
2021/09/17 00:24:30;;;;;;;23.52;15.00;;;;;;;;;;5010724;28;20084;-65
2021/09/17 00:26:56;;;;;;;24.73;15.18;;;;;;;;;;5010377;28;20108;-64
2021/09/17 00:29:22;;;;;;;22.77;14.60;;;;;;;;;;5010381;28;20053;-64
2021/09/17 00:31:48;;;;;;;23.95;14.80;;;;;;;;;;5010662;28;20112;-64
2021/09/17 00:34:14;;;;;;;23.75;14.48;;;;;;;;;;5012711;28;20037;-64
2021/09/17 00:36:40;;;;;;;25.00;15.05;;;;;;;;;;5014130;28;20121;-64
2021/09/17 00:39:06;;;;;;;25.42;14.43;;;;;;;;;;5012778;28;20074;-64
2021/09/17 00:41:32;;;;;;;26.23;14.80;;;;;;;;;;5014043;28;20022;-64
2021/09/17 00:43:58;;;;;;;23.20;13.88;;;;;;;;;;5014061;28;20095;-64
2021/09/17 00:46:24;;;;;;;28.70;15.13;;;;;;;;;;5012709;28;20034;-64
2021/09/17 00:48:50;;;;;;;22.25;14.07;;;;;;;;;;5012232;28;20065;-64
2021/09/17 00:51:16;;;;;;;24.20;14.98;;;;;;;;;;5013776;28;20026;-64
2021/09/17 00:53:42;;;;;;;25.10;15.32;;;;;;;;;;5013842;28;20021;-64
2021/09/17 00:56:08;;;;;;;24.13;14.63;;;;;;;;;;5013779;28;20109;-63
2021/09/17 00:58:34;;;;;;;24.23;14.77;;;;;;;;;;5012209;28;20041;-64
2021/09/17 01:01:00;;;;;;;23.45;14.25;;;;;;;;;;5013611;28;20088;-65
2021/09/17 01:03:29;;;;;;;24.20;14.93;;;;;;;;;;5013793;28;20030;-63
2021/09/17 01:05:54;;;;;;;24.38;15.15;;;;;;;;;;5013645;28;20041;-63
2021/09/17 01:08:21;;;;;;;25.00;15.20;;;;;;;;;;5013340;28;20030;-63
2021/09/17 01:10:48;;;;;;;24.10;14.32;;;;;;;;;;5013513;28;20030;-63
2021/09/17 01:13:14;;;;;;;24.25;15.52;;;;;;;;;;5013397;28;20033;-63
2021/09/17 01:15:40;;;;;;;24.85;14.40;;;;;;;;;;5012191;28;20028;-62
2021/09/17 01:18:06;;;;;;;23.58;14.40;;;;;;;;;;5013124;28;20033;-63
2021/09/17 01:20:32;;;;;;;23.20;13.80;;;;;;;;;;5013152;28;20025;-63
2021/09/17 01:22:58;;;;;;;24.35;14.23;;;;;;;;;;5013213;28;20026;-64
2021/09/17 01:25:24;;;;;;;22.65;13.15;;;;;;;;;;5011764;28;20100;-64
2021/09/17 01:27:51;;;;;;;22.60;13.98;;;;;;;;;;5012319;28;20018;-65
2021/09/17 01:30:18;;;;;;;25.02;14.70;;;;;;;;;;5011479;28;20470;-64
2021/09/17 01:32:44;;;;;;;23.98;14.40;;;;;;;;;;5011508;28;20052;-64
2021/09/17 01:35:11;;;;;;;24.50;15.07;;;;;;;;;;5011837;28;20019;-64
2021/09/17 01:37:38;;;;;;;22.75;13.25;;;;;;;;;;5012913;28;20030;-64
2021/09/17 01:40:04;;;;;;;23.55;13.60;;;;;;;;;;5011719;28;20026;-64
2021/09/17 01:42:30;;;;;;;23.48;13.73;;;;;;;;;;5011572;28;20478;-64
2021/09/17 01:44:56;;;;;;;23.13;13.88;;;;;;;;;;5012873;28;20044;-64
2021/09/17 01:47:22;;;;;;;24.70;13.70;;;;;;;;;;5011311;28;20029;-65
2021/09/17 01:49:48;;;;;;;23.55;13.75;;;;;;;;;;5012496;28;20026;-64
2021/09/17 01:52:14;;;;;;;24.20;14.25;;;;;;;;;;5012684;28;20038;-64
2021/09/17 01:54:41;;;;;;;22.52;13.45;;;;;;;;;;5011298;28;20018;-64
2021/09/17 01:57:07;;;;;;;22.05;12.77;;;;;;;;;;5011496;28;20080;-64
2021/09/17 01:59:33;;;;;;;22.80;13.27;;;;;;;;;;5010872;28;20022;-64
2021/09/17 02:01:59;;;;;;;20.95;12.75;;;;;;;;;;5011178;28;20022;-64
2021/09/17 02:04:25;;;;;;;23.88;13.85;;;;;;;;;;5011401;28;20033;-64
2021/09/17 02:06:51;;;;;;;21.48;12.82;;;;;;;;;;5011157;28;20062;-64
2021/09/17 02:09:17;;;;;;;24.92;12.95;;;;;;;;;;5010894;28;20018;-64
2021/09/17 02:11:43;;;;;;;20.63;12.75;;;;;;;;;;5012401;28;20553;-65
2021/09/17 02:14:09;;;;;;;21.42;12.23;;;;;;;;;;5012324;28;20022;-64
2021/09/17 02:16:37;;;;;;;21.73;12.68;;;;;;;;;;5012085;28;20026;-64
2021/09/17 02:19:03;;;;;;;23.45;12.77;;;;;;;;;;5011985;28;20058;-65
2021/09/17 02:21:29;;;;;;;22.08;13.48;;;;;;;;;;5012256;28;20117;-65
2021/09/17 02:23:55;;;;;;;22.05;14.02;;;;;;;;;;5012188;28;20030;-64
2021/09/17 02:26:21;;;;;;;21.55;13.23;;;;;;;;;;5010534;28;20466;-63
2021/09/17 02:28:47;;;;;;;22.00;13.65;;;;;;;;;;5011601;28;20057;-64
2021/09/17 02:31:13;;;;;;;22.63;14.75;;;;;;;;;;5012032;28;20044;-64
2021/09/17 02:33:40;;;;;;;22.55;14.68;;;;;;;;;;5010720;28;20022;-64
2021/09/17 02:36:06;;;;;;;22.10;13.75;;;;;;;;;;5011808;28;20108;-64
2021/09/17 02:38:33;;;;;;;22.45;13.98;;;;;;;;;;5011693;28;20033;-64
2021/09/17 02:40:59;;;;;;;22.95;14.93;;;;;;;;;;5011843;28;20040;-64
2021/09/17 02:43:25;;;;;;;22.20;13.77;;;;;;;;;;5011748;28;20021;-64
2021/09/17 02:45:51;;;;;;;25.13;15.30;;;;;;;;;;5010247;28;20087;-63
2021/09/17 02:48:17;;;;;;;22.52;14.50;;;;;;;;;;5011472;28;20025;-64
2021/09/17 02:50:43;;;;;;;25.10;14.90;;;;;;;;;;5011778;28;20038;-64
2021/09/17 02:53:09;;;;;;;24.02;14.07;;;;;;;;;;5011679;28;20022;-64
2021/09/17 02:55:35;;;;;;;24.20;15.73;;;;;;;;;;5011302;28;20069;-64
2021/09/17 02:58:05;;;;;;;24.20;15.63;;;;;;;;;;5011231;28;20159;-64
2021/09/17 03:00:31;;;;;;;24.25;16.02;;;;;;;;;;5011161;28;20026;-64
2021/09/17 03:02:57;;;;;;;25.25;16.42;;;;;;;;;;5011424;28;20045;-64
2021/09/17 03:05:23;;;;;;;26.15;16.33;;;;;;;;;;5009970;28;20100;-65
2021/09/17 03:07:49;;;;;;;25.80;16.45;;;;;;;;;;5011517;28;20058;-64
2021/09/17 03:10:15;;;;;;;26.17;17.25;;;;;;;;;;5010217;28;20022;-64
2021/09/17 03:12:42;;;;;;;26.17;16.42;;;;;;;;;;5009770;28;20413;-64
2021/09/17 03:15:08;;;;;;;26.02;16.98;;;;;;;;;;5009999;28;20022;-64
2021/09/17 03:17:34;;;;;;;26.58;16.25;;;;;;;;;;5010174;28;20030;-63
2021/09/17 03:20:01;;;;;;;24.38;15.93;;;;;;;;;;5011141;28;20049;-65
2021/09/17 03:22:27;;;;;;;25.33;16.77;;;;;;;;;;5011185;28;20125;-64
2021/09/17 03:24:53;;;;;;;25.90;16.40;;;;;;;;;;5010157;28;20072;-65
2021/09/17 03:27:19;;;;;;;27.33;18.02;;;;;;;;;;5010792;28;20441;-65
2021/09/17 03:29:45;;;;;;;26.75;16.65;;;;;;;;;;5009870;28;20022;-64
2021/09/17 03:32:11;;;;;;;25.10;17.05;;;;;;;;;;5010844;28;20026;-64
2021/09/17 03:34:37;;;;;;;26.58;16.40;;;;;;;;;;5010840;28;20033;-66
2021/09/17 03:37:03;;;;;;;26.63;16.77;;;;;;;;;;5009773;28;20061;-65
2021/09/17 03:39:29;;;;;;;27.83;17.98;;;;;;;;;;5010853;28;20026;-64
2021/09/17 03:41:55;;;;;;;26.52;17.77;;;;;;;;;;5010950;28;20120;-65
2021/09/17 03:44:21;;;;;;;26.80;17.10;;;;;;;;;;5009950;28;20041;-63
2021/09/17 03:46:47;;;;;;;29.40;19.77;;;;;;;;;;5009512;28;20026;-64
2021/09/17 03:49:14;;;;;;;26.45;17.95;;;;;;;;;;5010735;28;20060;-64
2021/09/17 03:51:40;;;;;;;28.42;19.58;;;;;;;;;;5010913;28;20053;-65
2021/09/17 03:54:06;;;;;;;29.05;20.70;;;;;;;;;;5010926;28;20389;-64
2021/09/17 03:56:32;;;;;;;32.03;19.63;;;;;;;;;;5009745;28;20220;-64
2021/09/17 03:58:58;;;;;;;27.98;19.48;;;;;;;;;;5010513;28;20029;-64
2021/09/17 04:01:24;;;;;;;30.23;21.27;;;;;;;;;;5010713;28;20034;-64
2021/09/17 04:03:50;;;;;;;32.03;20.85;;;;;;;;;;5010725;28;20096;-64
2021/09/17 04:06:16;;;;;;;30.90;21.15;;;;;;;;;;5009612;28;20026;-64
2021/09/17 04:08:42;;;;;;;30.88;20.67;;;;;;;;;;5010928;28;20448;-64
2021/09/17 04:11:08;;;;;;;31.55;22.15;;;;;;;;;;5013222;28;20058;-65
2021/09/17 04:13:34;;;;;;;29.92;21.27;;;;;;;;;;5014385;28;20374;-64
2021/09/17 04:16:00;;;;;;;32.65;22.73;;;;;;;;;;5013288;28;20040;-65
2021/09/17 04:18:26;;;;;;;28.58;21.23;;;;;;;;;;5012975;28;20510;-65
2021/09/17 04:20:52;;;;;;;35.60;20.75;;;;;;;;;;5014398;28;20022;-64
2021/09/17 04:23:18;;;;;;;33.13;21.17;;;;;;;;;;5014207;28;20137;-64
2021/09/17 04:25:44;;;;;;;31.02;21.63;;;;;;;;;;5013896;28;20030;-64
2021/09/17 04:28:10;;;;;;;33.50;22.10;;;;;;;;;;5013797;28;20064;-64
2021/09/17 04:30:36;;;;;;;36.50;22.45;;;;;;;;;;5014206;28;20018;-64
2021/09/17 04:33:02;;;;;;;36.65;22.85;;;;;;;;;;5014024;28;20458;-64
2021/09/17 04:35:28;;;;;;;34.38;22.58;;;;;;;;;;5012644;28;20029;-64
2021/09/17 04:37:58;;;;;;;32.72;23.45;;;;;;;;;;5014069;28;20421;-65
2021/09/17 04:40:24;;;;;;;34.83;23.73;;;;;;;;;;5013795;28;20088;-65
2021/09/17 04:42:51;;;;;;;39.92;24.55;;;;;;;;;;5012952;28;20470;-66
2021/09/17 04:45:17;;;;;;;40.22;25.33;;;;;;;;;;5013716;28;20030;-65
2021/09/17 04:47:43;;;;;;;34.90;24.92;;;;;;;;;;5013736;28;20025;-66
2021/09/17 04:50:09;;;;;;;36.42;25.25;;;;;;;;;;5013540;28;20045;-65
2021/09/17 04:52:35;;;;;;;38.45;26.13;;;;;;;;;;5013903;28;20374;-65
2021/09/17 04:55:01;;;;;;;41.20;27.65;;;;;;;;;;5013845;28;20418;-64
2021/09/17 04:57:27;;;;;;;41.10;27.27;;;;;;;;;;5013527;28;20033;-64
2021/09/17 04:59:54;;;;;;;40.25;26.48;;;;;;;;;;5013367;28;20165;-64
2021/09/17 05:02:20;;;;;;;41.40;27.98;;;;;;;;;;5012266;28;20033;-65
2021/09/17 05:04:46;;;;;;;39.15;27.55;;;;;;;;;;5013397;28;20041;-65
2021/09/17 05:07:12;;;;;;;42.13;29.15;;;;;;;;;;5013204;28;20101;-65
2021/09/17 05:09:38;;;;;;;41.30;26.77;;;;;;;;;;5013126;28;20044;-65
2021/09/17 05:12:04;;;;;;;40.65;27.10;;;;;;;;;;5013026;28;20037;-64
2021/09/17 05:14:30;;;;;;;40.95;26.38;;;;;;;;;;5011904;28;20045;-65
2021/09/17 05:16:56;;;;;;;40.17;27.90;;;;;;;;;;5011772;28;20488;-65
2021/09/17 05:19:25;;;;;;;43.30;29.02;;;;;;;;;;5012480;28;20038;-64
2021/09/17 05:21:52;;;;;;;41.60;27.58;;;;;;;;;;5012949;28;20026;-64
2021/09/17 05:24:18;;;;;;;41.55;28.15;;;;;;;;;;5011713;28;20488;-65
2021/09/17 05:26:44;;;;;;;42.20;28.98;;;;;;;;;;5034088;22;20408;-60
2021/09/17 05:29:10;;;;;;;50.10;31.80;;;;;;;;;;5046647;28;20037;-60
2021/09/17 05:31:36;;;;;;;52.17;32.80;;;;;;;;;;5052151;28;20074;-61
2021/09/17 05:34:02;;;;;;;56.72;34.90;;;;;;;;;;5053217;28;20032;-58
2021/09/17 05:36:28;;;;;;;49.30;32.22;;;;;;;;;;5051888;28;20435;-59
2021/09/17 05:38:54;;;;;;;49.28;34.47;;;;;;;;;;5051686;28;20116;-61
2021/09/17 05:41:20;;;;;;;53.72;36.58;;;;;;;;;;5052087;28;20123;-60
2021/09/17 05:43:46;;;;;;;51.10;32.28;;;;;;;;;;5052923;28;20027;-62
2021/09/17 05:46:12;;;;;;;50.22;33.72;;;;;;;;;;5052835;28;20388;-59
2021/09/17 05:48:38;;;;;;;60.30;37.38;;;;;;;;;;5051243;28;20021;-60
2021/09/17 05:51:04;;;;;;;55.50;36.95;;;;;;;;;;5053042;28;20108;-60
2021/09/17 05:53:30;;;;;;;55.30;36.05;;;;;;;;;;5053171;28;20021;-60
2021/09/17 05:55:56;;;;;;;51.90;35.45;;;;;;;;;;5052877;28;20453;-60
2021/09/17 05:58:27;;;;;;;55.90;34.83;;;;;;;;;;5051345;28;20071;-60
2021/09/17 06:00:53;;;;;;;54.00;34.33;;;;;;;;;;5053088;28;20021;-60
2021/09/17 06:03:19;;;;;;;56.67;35.38;;;;;;;;;;5052735;28;20036;-60
2021/09/17 06:05:45;;;;;;;51.42;34.85;;;;;;;;;;5051633;28;20392;-60
2021/09/17 06:08:11;;;;;;;49.97;33.72;;;;;;;;;;5052662;28;20065;-60
2021/09/17 06:10:37;;;;;;;52.30;35.83;;;;;;;;;;5052566;28;20047;-57
2021/09/17 06:13:03;;;;;;;51.55;32.85;;;;;;;;;;5052578;28;20028;-59
2021/09/17 06:15:29;;;;;;;51.78;34.78;;;;;;;;;;5051477;28;20017;-59
2021/09/17 06:17:55;;;;;;;63.97;36.33;;;;;;;;;;5052764;28;20017;-60
2021/09/17 06:20:21;;;;;;;48.22;32.78;;;;;;;;;;5052564;28;20024;-58
2021/09/17 06:22:53;;;;;;;53.33;35.03;;;;;;;;;;5052340;28;20021;-58
2021/09/17 06:25:20;;;;;;;53.05;34.42;;;;;;;;;;5052668;28;20384;-60
2021/09/17 06:27:46;;;;;;;50.10;35.00;;;;;;;;;;5052156;28;20031;-60
2021/09/17 06:30:12;;;;;;;45.42;32.42;;;;;;;;;;5052220;28;20025;-60
2021/09/17 06:32:38;;;;;;;47.17;32.75;;;;;;;;;;5050575;28;20369;-60
2021/09/17 06:35:04;;;;;;;46.25;29.73;;;;;;;;;;5052498;28;20032;-60
2021/09/17 06:37:30;;;;;;;47.35;29.75;;;;;;;;;;5051114;28;20131;-60
2021/09/17 06:39:56;;;;;;;50.85;33.72;;;;;;;;;;5050722;28;20120;-59
2021/09/17 06:42:22;;;;;;;56.35;35.17;;;;;;;;;;5050741;28;20033;-60
2021/09/17 06:44:48;;;;;;;59.95;36.08;;;;;;;;;;5051046;28;20056;-61
2021/09/17 06:47:14;;;;;;;65.75;36.85;;;;;;;;;;5051749;28;20036;-59
2021/09/17 06:49:40;;;;;;;58.00;37.90;;;;;;;;;;5052007;28;20021;-65
2021/09/17 06:52:07;;;;;;;64.18;39.30;;;;;;;;;;5051133;28;20223;-66
2021/09/17 06:54:33;;;;;;;61.40;38.20;;;;;;;;;;5050871;28;20025;-61
2021/09/17 06:56:59;;;;;;;58.80;37.78;;;;;;;;;;5051829;28;20400;-61
2021/09/17 06:59:25;;;;;;;67.75;41.13;;;;;;;;;;5050347;28;20060;-63
2021/09/17 07:01:51;;;;;;;61.83;40.45;;;;;;;;;;5051677;28;20044;-62
2021/09/17 07:04:16;;;;;;;63.50;37.70;;;;;;;;;;5051890;28;20639;-64
2021/09/17 07:06:42;;;;;;;61.45;38.85;;;;;;;;;;5051890;28;20052;-59
2021/09/17 07:09:09;;;;;;;60.80;39.08;;;;;;;;;;5051865;28;20025;-61
2021/09/17 07:11:34;;;;;;;65.45;41.88;;;;;;;;;;5050585;28;20028;-62
2021/09/17 07:14:01;;;;;;;63.00;40.28;;;;;;;;;;5050722;28;20419;-62
2021/09/17 07:16:27;;;;;;;73.43;41.55;;;;;;;;;;5051647;28;20055;-63
2021/09/17 07:18:53;;;;;;;59.20;39.03;;;;;;;;;;5049920;28;20083;-62
2021/09/17 07:21:19;;;;;;;67.82;42.25;;;;;;;;;;5050717;28;20341;-62
2021/09/17 07:23:45;;;;;;;69.82;42.10;;;;;;;;;;5051644;28;20025;-62
2021/09/17 07:26:10;;;;;;;68.90;42.33;;;;;;;;;;5051422;28;20036;-62
2021/09/17 07:28:36;;;;;;;68.15;40.55;;;;;;;;;;5051281;28;20127;-61
2021/09/17 07:31:02;;;;;;;65.13;40.53;;;;;;;;;;5050519;28;20025;-61
2021/09/17 07:33:28;;;;;;;60.38;38.17;;;;;;;;;;5051448;28;20025;-61
2021/09/17 07:35:54;;;;;;;72.53;45.40;;;;;;;;;;5051476;28;20480;-61
2021/09/17 07:38:20;;;;;;;76.00;44.03;;;;;;;;;;5051255;28;20519;-61
2021/09/17 07:40:46;;;;;;;73.32;43.25;;;;;;;;;;5050480;28;20025;-62
2021/09/17 07:43:12;;;;;;;69.40;42.00;;;;;;;;;;5054052;28;20029;-61
2021/09/17 07:45:38;;;;;;;70.18;43.92;;;;;;;;;;5055417;28;20055;-61
2021/09/17 07:48:05;;;;;;;64.38;41.60;;;;;;;;;;5055045;28;20017;-62
2021/09/17 07:50:31;;;;;;;63.22;41.30;;;;;;;;;;5055262;28;20100;-61
2021/09/17 07:52:57;;;;;;;65.70;42.13;;;;;;;;;;5054083;28;20021;-61
2021/09/17 07:55:23;;;;;;;68.40;45.45;;;;;;;;;;5055449;28;20017;-61
2021/09/17 07:57:49;;;;;;;69.43;44.08;;;;;;;;;;5054214;28;20102;-61
2021/09/17 08:00:16;;;;;;;65.13;41.80;;;;;;;;;;5055215;28;20056;-61
2021/09/17 08:02:42;;;;;;;62.40;41.00;;;;;;;;;;5054156;28;20051;-61
2021/09/17 08:05:09;;;;;;;63.30;42.58;;;;;;;;;;5053937;28;20036;-61
2021/09/17 08:07:35;;;;;;;66.22;38.80;;;;;;;;;;5055156;28;20027;-62
2021/09/17 08:10:01;;;;;;;61.25;40.50;;;;;;;;;;5054918;28;20029;-61
2021/09/17 08:12:27;;;;;;;59.65;40.47;;;;;;;;;;5055183;28;20032;-61
2021/09/17 08:14:53;;;;;;;57.38;37.97;;;;;;;;;;5054115;28;20553;-62
2021/09/17 08:17:19;;;;;;;59.80;40.20;;;;;;;;;;5053452;28;20130;-62
2021/09/17 08:19:45;;;;;;;65.10;40.17;;;;;;;;;;5054818;28;20029;-62
2021/09/17 08:22:11;;;;;;;68.10;39.20;;;;;;;;;;5054838;28;20028;-62
2021/09/17 08:24:37;;;;;;;62.95;39.63;;;;;;;;;;5054812;28;20473;-61
2021/09/17 08:27:03;;;;;;;61.40;38.25;;;;;;;;;;5054454;28;20033;-61
2021/09/17 08:29:29;;;;;;;60.47;38.97;;;;;;;;;;5054403;28;20465;-61
2021/09/17 08:31:56;;;;;;;62.75;39.85;;;;;;;;;;5054912;28;20021;-66
2021/09/17 08:34:22;;;;;;;58.95;39.08;;;;;;;;;;5054717;28;20039;-63
2021/09/17 08:36:48;;;;;;;55.15;36.80;;;;;;;;;;5054196;28;20028;-63
2021/09/17 08:39:15;;;;;;;59.00;37.90;;;;;;;;;;5054177;28;20027;-63
2021/09/17 08:41:42;;;;;;;55.95;36.65;;;;;;;;;;5054356;28;20052;-63
2021/09/17 08:44:08;;;;;;;52.13;35.78;;;;;;;;;;5054146;28;20025;-63
2021/09/17 08:46:34;;;;;;;56.85;39.60;;;;;;;;;;5054120;28;20434;-63
2021/09/17 08:49:02;;;;;;;53.92;35.22;;;;;;;;;;5053995;28;20021;-63
2021/09/17 08:51:28;;;;;;;50.65;32.95;;;;;;;;;;5054469;28;20391;-61
2021/09/17 08:53:54;;;;;;;53.45;34.47;;;;;;;;;;5052995;28;20029;-62
2021/09/17 08:56:20;;;;;;;50.58;34.53;;;;;;;;;;5037861;28;20029;-63
2021/09/17 08:58:46;;;;;;;51.72;34.72;;;;;;;;;;4683001;28;10000511;-63
2021/09/17 09:01:26;;;;;;;42.88;30.17;;;;;;;;;;5047146;28;20033;-63
2021/09/17 09:03:52;;;;;;;47.30;31.65;;;;;;;;;;5034099;28;20388;-63
2021/09/17 09:06:19;;;;;;;42.78;30.42;;;;;;;;;;5034076;28;20024;-63
2021/09/17 09:08:45;;;;;;;42.53;30.45;;;;;;;;;;5033829;28;20101;-63
2021/09/17 09:11:16;;;;;;;44.03;30.23;;;;;;;;;;5049173;28;20032;-63
2021/09/17 09:14:00;;;;;;;42.65;29.98;;;;;;;;;;5049108;28;20022;-63
2021/09/17 09:16:27;;;;;;;40.88;30.10;;;;;;;;;;5033736;28;20029;-63
2021/09/17 09:18:53;;;;;;;40.08;28.88;;;;;;;;;;5048940;28;20079;-63
2021/09/17 09:21:30;;;;;;;42.20;31.10;;;;;;;;;;5048706;28;20056;-63
2021/09/17 09:24:13;;;;;;;42.63;28.80;;;;;;;;;;5033634;28;20101;-63
2021/09/17 09:26:39;;;;;;;40.92;29.85;;;;;;;;;;5033318;28;20049;-64
2021/09/17 09:29:05;;;;;;;38.97;27.33;;;;;;;;;;5048723;28;20530;-63
2021/09/17 09:31:41;;;;;;;37.25;25.88;;;;;;;;;;5033720;28;20026;-64
2021/09/17 09:34:07;;;;;;;37.88;27.27;;;;;;;;;;5033567;28;20083;-63
2021/09/17 09:36:35;;;;;;;36.78;28.48;;;;;;;;;;5033582;28;20393;-63
2021/09/17 09:39:01;;;;;;;39.72;28.50;;;;;;;;;;5033401;28;20025;-63
2021/09/17 09:41:29;;;;;;;37.00;27.73;;;;;;;;;;5033125;28;20033;-63
2021/09/17 09:44:04;;;;;;;35.37;26.00;;;;;;;;;;5033082;28;20400;-62
2021/09/17 09:46:30;;;;;;;36.20;27.15;;;;;;;;;;5033000;28;20280;-63
2021/09/17 09:49:00;;;;;;;36.53;28.40;;;;;;;;;;5031770;28;20040;-63
2021/09/17 09:51:27;;;;;;;41.28;26.88;;;;;;;;;;5032618;28;20420;-63
2021/09/17 09:53:53;;;;;;;38.67;26.58;;;;;;;;;;5032976;28;20397;-62
2021/09/17 09:56:19;;;;;;;35.50;25.13;;;;;;;;;;5032828;28;20474;-63
2021/09/17 09:58:47;;;;;;;35.20;25.27;;;;;;;;;;5031427;28;20033;-63
2021/09/17 10:01:13;;;;;;;39.10;26.00;;;;;;;;;;5031368;28;20524;-63
2021/09/17 10:03:39;;;;;;;33.20;22.52;;;;;;;;;;5022208;28;20083;-63
2021/09/17 10:06:05;;;;;;;31.63;22.40;;;;;;;;;;5020035;28;20030;-63
2021/09/17 10:08:32;;;;;;;36.53;24.38;;;;;;;;;;5043490;28;20021;-63
2021/09/17 10:10:58;;;;;;;36.85;26.42;;;;;;;;;;5033102;28;20029;-63
2021/09/17 10:13:24;;;;;;;37.30;27.17;;;;;;;;;;5031956;28;20017;-63
2021/09/17 10:15:50;;;;;;;33.70;25.00;;;;;;;;;;5032336;28;20401;-62
2021/09/17 10:18:19;;;;;;;31.02;22.90;;;;;;;;;;5030232;28;20017;-63
2021/09/17 10:20:45;;;;;;;35.88;24.13;;;;;;;;;;5029579;28;20091;-63
2021/09/17 10:23:24;;;;;;;32.58;24.13;;;;;;;;;;5031392;28;20041;-63
2021/09/17 10:26:10;;;;;;;31.25;22.90;;;;;;;;;;5032289;28;20017;-63
2021/09/17 10:29:02;;;;;;;36.10;24.77;;;;;;;;;;5032541;28;20493;-63
2021/09/17 10:31:40;;;;;;;35.55;24.70;;;;;;;;;;5022493;28;20074;-63
2021/09/17 10:34:24;;;;;;;32.42;25.00;;;;;;;;;;5044508;28;20037;-66
2021/09/17 10:36:50;;;;;;;32.53;23.50;;;;;;;;;;5028334;28;20072;-63
2021/09/17 10:39:17;;;;;;;30.20;23.55;;;;;;;;;;5026888;28;20103;-63
2021/09/17 10:42:02;;;;;;;30.20;23.38;;;;;;;;;;5018172;28;20579;-63
2021/09/17 10:44:28;;;;;;;32.70;23.35;;;;;;;;;;5032326;28;20025;-63
2021/09/17 10:46:54;;;;;;;35.10;24.67;;;;;;;;;;5031011;28;20036;-64
2021/09/17 10:49:20;;;;;;;31.98;22.40;;;;;;;;;;5031540;28;20029;-63
2021/09/17 10:51:46;;;;;;;31.08;23.25;;;;;;;;;;5026825;28;20080;-63
2021/09/17 10:54:12;;;;;;;30.23;23.13;;;;;;;;;;5029473;28;20043;-63
2021/09/17 10:56:47;;;;;;;32.88;24.27;;;;;;;;;;5032045;28;20108;-63
2021/09/17 10:59:29;;;;;;;34.17;23.58;;;;;;;;;;5031381;28;20057;-63
2021/09/17 11:02:03;;;;;;;32.80;24.60;;;;;;;;;;5031896;28;20105;-63
2021/09/17 11:04:40;;;;;;;32.67;24.35;;;;;;;;;;5028082;28;20493;-63
2021/09/17 11:07:18;;;;;;;34.22;24.80;;;;;;;;;;5040940;28;20041;-63
2021/09/17 11:09:53;;;;;;;33.88;24.27;;;;;;;;;;5020174;28;20048;-60
2021/09/17 11:12:20;;;;;;;33.05;23.77;;;;;;;;;;5025282;28;20096;-63
2021/09/17 11:15:05;;;;;;;32.42;24.60;;;;;;;;;;5033685;28;20072;-64
2021/09/17 11:17:34;;;;;;;32.17;22.92;;;;;;;;;;5039331;28;20022;-61
2021/09/17 11:20:00;;;;;;;34.10;24.27;;;;;;;;;;5051533;28;20070;-63
2021/09/17 11:22:26;;;;;;;34.15;23.63;;;;;;;;;;5053741;28;20060;-63
2021/09/17 11:25:04;;;;;;;33.72;25.73;;;;;;;;;;5030998;28;20033;-67
2021/09/17 11:27:31;;;;;;;;;;;;;;;;;;5028504;28;20049;-59
2021/09/17 11:30:09;;;;;;;34.53;26.67;;;;;;;;;;5044097;28;19947;-56
2021/09/17 11:32:35;;;;;;;36.63;26.05;;;;;;;;;;5028109;28;20087;-59
2021/09/17 11:35:08;;;;;;;32.10;23.58;;;;;;;;;;5031526;28;20033;-59
2021/09/17 11:37:34;;;;;;;32.13;24.70;;;;;;;;;;5030939;28;20022;-61
2021/09/17 11:40:05;;;;;;;32.97;24.60;;;;;;;;;;5030651;28;20029;-59
2021/09/17 11:42:31;;;;;;;33.33;25.88;;;;;;;;;;5028794;28;20101;-60
2021/09/17 11:44:57;;;;;;;30.23;24.20;;;;;;;;;;5030721;28;20075;-62
2021/09/17 11:47:28;;;;;;;33.25;27.15;;;;;;;;;;5030812;28;20104;-61
2021/09/17 11:49:55;;;;;;;33.72;26.50;;;;;;;;;;5031397;28;20028;-62
2021/09/17 11:52:21;;;;;;;37.80;25.50;;;;;;;;;;5027303;28;20021;-56
2021/09/17 11:55:01;;;;;;;32.85;26.67;;;;;;;;;;5029569;28;20033;-59
2021/09/17 11:57:30;;;;;;;34.55;26.63;;;;;;;;;;5030339;28;20479;-60
2021/09/17 11:59:56;;;;;;;33.60;24.63;;;;;;;;;;5028689;28;20021;-59
2021/09/17 12:02:23;;;;;;;26.27;19.77;;;;;;;;;;5029107;28;20017;-61
2021/09/17 12:04:56;;;;;;;26.83;20.60;;;;;;;;;;5030049;28;20029;-59
2021/09/17 12:07:23;;;;;;;30.08;21.58;;;;;;;;;;5030419;28;20077;-59
2021/09/17 12:09:49;;;;;;;27.27;19.63;;;;;;;;;;5018974;28;20117;-56
2021/09/17 12:12:15;;;;;;;31.13;21.02;;;;;;;;;;5030584;28;20430;-59
2021/09/17 12:14:54;;;;;;;24.83;18.52;;;;;;;;;;5030353;28;20018;-56
2021/09/17 12:17:21;;;;;;;26.85;19.65;;;;;;;;;;5029328;28;20453;-60
2021/09/17 12:19:57;;;;;;;28.65;20.45;;;;;;;;;;5030250;28;20029;-62
2021/09/17 12:22:47;;;;;;;30.23;21.90;;;;;;;;;;5030054;28;20026;-60
2021/09/17 12:25:13;;;;;;;26.85;20.02;;;;;;;;;;5030234;28;20017;-60
2021/09/17 12:27:40;;;;;;;29.10;20.60;;;;;;;;;;5031494;28;20040;-59
2021/09/17 12:30:08;;;;;;;28.17;21.60;;;;;;;;;;5051039;28;20116;-59
2021/09/17 12:32:34;;;;;;;28.50;21.80;;;;;;;;;;5054079;28;20064;-60
2021/09/17 12:35:04;;;;;;;32.72;22.88;;;;;;;;;;5054179;28;20025;-59
2021/09/17 12:37:30;;;;;;;29.15;22.25;;;;;;;;;;5042800;28;20087;-60
2021/09/17 12:40:16;;;;;;;28.80;21.98;;;;;;;;;;5038811;28;20022;-58
2021/09/17 12:42:43;;;;;;;30.15;23.13;;;;;;;;;;5033994;28;20025;-60
2021/09/17 12:45:10;;;;;;;29.70;23.27;;;;;;;;;;5034124;28;20135;-60
2021/09/17 12:47:36;;;;;;;30.73;22.05;;;;;;;;;;5032699;28;20029;-60
2021/09/17 12:50:06;;;;;;;31.08;23.60;;;;;;;;;;5033580;28;20361;-60
2021/09/17 12:52:36;;;;;;;33.45;24.02;;;;;;;;;;5033370;28;20029;-60
2021/09/17 12:55:02;;;;;;;28.77;21.42;;;;;;;;;;5033629;28;20444;-60
2021/09/17 12:57:29;;;;;;;29.88;23.73;;;;;;;;;;5033699;28;20457;-60
2021/09/17 13:00:03;;;;;;;30.33;23.55;;;;;;;;;;5033518;28;20147;-60
2021/09/17 13:02:30;;;;;;;34.08;23.85;;;;;;;;;;5034007;28;20428;-59
2021/09/17 13:05:00;;;;;;;31.90;24.52;;;;;;;;;;5032728;28;20511;-59
2021/09/17 13:07:25;;;;;;;31.23;25.15;;;;;;;;;;5033367;28;20451;-58
2021/09/17 13:09:52;;;;;;;29.95;23.67;;;;;;;;;;5031764;28;20084;-58
2021/09/17 13:12:17;;;;;;;29.13;24.48;;;;;;;;;;5033668;28;20105;-55
2021/09/17 13:14:43;;;;;;;33.13;26.75;;;;;;;;;;5033732;28;20018;-57
2021/09/17 13:17:09;;;;;;;32.05;24.58;;;;;;;;;;5032295;28;20378;-60
2021/09/17 13:19:35;;;;;;;31.60;23.42;;;;;;;;;;5031913;28;20021;-58
2021/09/17 13:22:02;;;;;;;30.65;23.25;;;;;;;;;;5031818;28;20140;-59
2021/09/17 13:24:28;;;;;;;30.15;23.92;;;;;;;;;;5032682;28;20030;-63
2021/09/17 13:26:54;;;;;;;30.85;24.58;;;;;;;;;;5033342;28;20128;-60
2021/09/17 13:29:19;;;;;;;33.80;26.10;;;;;;;;;;5047157;28;20094;-61
2021/09/17 13:31:45;;;;;;;33.67;25.88;;;;;;;;;;5052963;28;20021;-60
2021/09/17 13:34:11;;;;;;;35.28;26.30;;;;;;;;;;5051205;28;20017;-56
2021/09/17 13:36:37;;;;;;;37.45;28.27;;;;;;;;;;5053051;28;20024;-57
2021/09/17 13:39:03;;;;;;;38.85;25.23;;;;;;;;;;5052626;28;20419;-60
2021/09/17 13:41:29;;;;;;;34.33;27.17;;;;;;;;;;5052027;28;20036;-57
2021/09/17 13:43:55;;;;;;;33.78;26.92;;;;;;;;;;5051591;28;20469;-57
2021/09/17 13:46:21;;;;;;;33.38;26.02;;;;;;;;;;5051689;28;20392;-61
2021/09/17 13:48:47;;;;;;;34.45;29.58;;;;;;;;;;5052347;28;20389;-60
2021/09/17 13:51:14;;;;;;;34.25;28.58;;;;;;;;;;5051081;28;20092;-60
2021/09/17 13:53:41;;;;;;;32.03;25.92;;;;;;;;;;5052876;28;20025;-60
2021/09/17 13:56:07;;;;;;;36.22;27.80;;;;;;;;;;5052603;28;20106;-60
2021/09/17 13:58:33;;;;;;;33.17;27.33;;;;;;;;;;5052194;28;20025;-60
2021/09/17 14:00:59;;;;;;;33.95;28.13;;;;;;;;;;5052812;28;20021;-61
2021/09/17 14:03:25;;;;;;;36.40;28.67;;;;;;;;;;5052609;28;20036;-61
2021/09/17 14:05:51;;;;;;;32.88;27.58;;;;;;;;;;5052624;28;20408;-61
2021/09/17 14:08:18;;;;;;;32.88;27.60;;;;;;;;;;5052451;28;20026;-61
2021/09/17 14:10:44;;;;;;;33.80;28.48;;;;;;;;;;5052264;28;20104;-62
2021/09/17 14:13:10;;;;;;;32.92;28.08;;;;;;;;;;5052395;28;20017;-62
2021/09/17 14:15:36;;;;;;;34.67;27.77;;;;;;;;;;5052444;28;20531;-59